Time;durP1;ratioP1;P1;durP2;ratioP2;P2;SDS_P1;SDS_P2;PMS_P1;PMS_P2;Temp;Humidity;BMP_temperature;BMP_pressure;BME280_temperature;BME280_humidity;BME280_pressure;Samples;Min_cycle;Max_cycle;Signal;HPM_P1;HPM_P2
2022/09/04 00:02:34;;;;;;;33.88;20.83;;;;;;;10.35;53.92;99997.84;5055155;28;20080;-80
2022/09/04 00:05:12;;;;;;;41.65;21.13;;;;;;;10.43;53.43;100008.00;5055218;28;20063;-78
2022/09/04 00:07:57;;;;;;;36.78;21.85;;;;;;;10.39;54.14;100002.00;5038774;28;20045;-79
2022/09/04 00:10:36;;;;;;;37.00;19.88;;;;;;;10.36;53.74;99991.53;5038243;28;20067;-79
2022/09/04 00:13:21;;;;;;;37.08;20.98;;;;;;;10.29;53.84;100000.91;5054942;28;20052;-80
2022/09/04 00:16:11;;;;;;;37.63;21.60;;;;;;;10.26;53.66;99998.47;5038224;28;20045;-82
2022/09/04 00:18:40;;;;;;;29.88;20.65;;;;;;;10.23;54.11;99996.00;5026980;28;20017;-83
2022/09/04 00:21:21;;;;;;;26.05;15.93;;;;;;;10.11;54.16;99992.31;5081112;28;20036;-84
2022/09/04 00:23:54;;;;;;;24.00;16.50;;;;;;;9.93;54.48;99991.75;5071448;28;20088;-82
2022/09/04 00:26:44;;;;;;;21.95;14.15;;;;;;;9.89;54.85;99981.34;5022163;28;20045;-81
2022/09/04 00:29:20;;;;;;;19.83;13.27;;;;;;;9.93;54.43;99983.75;5055001;28;20052;-80
2022/09/04 00:32:08;;;;;;;19.77;13.45;;;;;;;9.97;54.40;99987.91;5038065;28;20045;-78
2022/09/04 00:35:03;;;;;;;19.55;12.38;;;;;;;10.08;54.20;99981.84;5054344;28;20114;-78
2022/09/04 00:37:38;;;;;;;17.63;10.73;;;;;;;9.96;54.85;99974.66;5012505;28;20041;-80
2022/09/04 00:40:18;;;;;;;10.27;7.68;;;;;;;10.06;54.45;99974.91;5054468;28;20053;-80
2022/09/04 00:43:18;;;;;;;15.32;8.10;;;;;;;10.13;54.76;99970.84;5037700;28;20072;-77
2022/09/04 00:46:16;;;;;;;13.70;7.72;;;;;;;10.21;54.25;99963.16;5037806;28;20405;-76
2022/09/04 00:49:20;;;;;;;18.08;7.70;;;;;;;10.27;54.42;99972.59;5037114;28;20045;-78
2022/09/04 00:52:12;;;;;;;14.93;8.60;;;;;;;10.29;54.18;99955.50;5054566;28;20048;-77
2022/09/04 00:54:51;;;;;;;15.95;8.07;;;;;;;10.47;54.02;99973.91;5037623;28;20045;-77
2022/09/04 00:57:44;;;;;;;13.80;6.72;;;;;;;10.48;53.70;99975.59;5037250;28;20049;-77
2022/09/04 01:00:15;;;;;;;12.77;7.35;;;;;;;10.55;53.62;99976.91;5040138;28;20060;-77
2022/09/04 01:03:03;;;;;;;10.98;7.90;;;;;;;10.64;53.73;99977.13;5037835;28;20131;-77
2022/09/04 01:06:28;;;;;;;12.52;8.27;;;;;;;10.60;53.94;99988.97;5053893;28;20443;-77
2022/09/04 01:09:29;;;;;;;12.00;8.38;;;;;;;10.57;53.83;99982.97;5053114;28;20049;-76
2022/09/04 01:11:55;;;;;;;14.52;7.90;;;;;;;10.50;54.12;99987.06;5036586;28;20144;-77
2022/09/04 01:14:33;;;;;;;10.18;6.10;;;;;;;10.45;53.65;99969.53;5050536;28;20139;-78
2022/09/04 01:17:28;;;;;;;11.30;8.23;;;;;;;10.48;53.65;99983.63;5055314;28;20405;-77
2022/09/04 01:20:20;;;;;;;16.75;7.28;;;;;;;10.48;53.57;99975.59;5036832;28;20489;-78
2022/09/04 01:23:21;;;;;;;12.13;6.78;;;;;;;10.38;53.88;99978.03;5037054;28;20041;-78
2022/09/04 01:26:10;;;;;;;14.35;7.45;;;;;;;10.41;53.79;99989.38;5053639;28;20170;-77
2022/09/04 01:28:45;;;;;;;12.38;7.13;;;;;;;10.45;53.46;99995.38;5055306;28;20037;-77
2022/09/04 01:31:20;;;;;;;11.43;7.60;;;;;;;10.54;53.40;99993.91;5054617;28;20086;-77
2022/09/04 01:34:08;;;;;;;13.82;7.10;;;;;;;10.53;53.43;100009.09;5036761;28;20043;-78
2022/09/04 01:37:05;;;;;;;12.48;7.95;;;;;;;10.42;53.50;100020.53;5037152;28;20594;-78
2022/09/04 01:39:34;;;;;;;16.20;8.30;;;;;;;10.40;53.28;100006.38;5053907;28;20492;-78
2022/09/04 01:42:22;;;;;;;23.00;8.75;;;;;;;10.41;53.20;99997.41;5037146;28;20457;-78
2022/09/04 01:44:48;;;;;;;15.20;9.38;;;;;;;10.49;53.05;99996.88;5020283;28;20045;-78
2022/09/04 01:47:34;;;;;;;13.73;8.80;;;;;;;10.56;53.03;99994.63;5053170;28;20094;-77
2022/09/04 01:50:12;;;;;;;17.17;9.02;;;;;;;10.61;53.22;99995.19;5054552;28;20049;-78
2022/09/04 01:53:05;;;;;;;13.75;8.98;;;;;;;10.57;53.27;100012.38;5041056;28;20041;-78
2022/09/04 01:55:41;;;;;;;10.05;7.32;;;;;;;10.54;53.33;100012.63;5039439;28;20033;-76
2022/09/04 01:58:09;;;;;;;11.43;7.18;;;;;;;10.58;53.40;100014.13;5036248;28;20129;-78
2022/09/04 02:00:51;;;;;;;15.60;6.78;;;;;;;10.64;53.15;100016.34;5018979;28;20049;-77
2022/09/04 02:03:52;;;;;;;17.40;5.85;;;;;;;10.61;53.34;100000.53;5052938;28;20088;-79
2022/09/04 02:06:36;;;;;;;10.35;4.97;;;;;;;10.67;53.17;99982.22;5035964;28;20338;-76
2022/09/04 02:09:09;;;;;;;7.32;4.70;;;;;;;10.77;52.91;100001.16;5036547;28;20045;-78
2022/09/04 02:11:37;;;;;;;14.63;5.35;;;;;;;10.74;52.62;99979.97;5036277;28;20058;-78
2022/09/04 02:14:16;;;;;;;8.20;5.43;;;;;;;10.89;52.61;99989.59;5035870;28;20507;-79
2022/09/04 02:17:07;;;;;;;17.42;5.47;;;;;;;10.81;53.80;99996.47;5054139;28;20047;-76
2022/09/04 02:20:04;;;;;;;15.60;5.55;;;;;;;10.73;53.64;99996.16;5035952;28;20055;-78
2022/09/04 02:22:40;;;;;;;12.75;9.82;;;;;;;10.61;54.45;99992.50;5051855;28;20056;-77
2022/09/04 02:25:12;;;;;;;18.35;7.60;;;;;;;10.58;54.60;99990.06;5035688;28;20128;-78
2022/09/04 02:28:04;;;;;;;13.60;6.97;;;;;;;10.53;54.80;99992.16;5052410;28;20064;-78
2022/09/04 02:31:17;;;;;;;12.02;7.65;;;;;;;10.49;54.56;99990.69;5052793;28;20049;-77
2022/09/04 02:34:05;;;;;;;16.25;7.38;;;;;;;10.59;54.38;99997.09;5050419;28;20073;-76
2022/09/04 02:36:55;;;;;;;13.75;7.45;;;;;;;10.73;53.87;99993.47;5035669;28;20408;-77
2022/09/04 02:39:36;;;;;;;13.68;7.70;;;;;;;10.88;53.88;99987.03;5052216;28;20063;-78
2022/09/04 02:42:12;;;;;;;18.77;10.65;;;;;;;11.01;53.58;99987.00;5053481;28;20404;-78
2022/09/04 02:44:48;;;;;;;24.60;12.60;;;;;;;10.88;53.76;99998.59;5053592;28;20049;-78
2022/09/04 02:47:41;;;;;;;27.00;14.43;;;;;;;10.80;54.16;99987.59;5051998;28;20052;-77
2022/09/04 02:50:16;;;;;;;20.90;12.60;;;;;;;10.99;53.56;99991.63;5052280;28;20059;-78
2022/09/04 02:53:09;;;;;;;23.80;11.52;;;;;;;10.98;53.91;99992.56;5035231;28;20081;-78
2022/09/04 02:55:56;;;;;;;21.80;11.45;;;;;;;11.04;53.72;99987.66;5053526;28;20499;-77
2022/09/04 02:58:56;;;;;;;27.65;12.30;;;;;;;10.97;53.72;99980.16;5053099;28;20036;-78
2022/09/04 03:01:52;;;;;;;14.98;11.68;;;;;;;11.18;53.52;99990.19;5051662;28;20086;-78
2022/09/04 03:04:41;;;;;;;15.80;13.40;;;;;;;11.42;53.01;99992.88;5048182;28;20057;-79
2022/09/04 03:07:14;;;;;;;27.67;16.27;;;;;;;11.59;52.77;99985.47;5046456;28;20053;-78
2022/09/04 03:09:47;;;;;;;38.47;20.35;;;;;;;11.78;52.58;99995.66;5053380;28;20048;-79
2022/09/04 03:12:51;;;;;;;30.08;22.15;;;;;;;11.89;52.13;99991.25;5051515;28;20408;-78
2022/09/04 03:15:35;;;;;;;52.47;31.75;;;;;;;11.74;51.63;99992.34;5018671;28;20037;-77
2022/09/04 03:18:10;;;;;;;81.68;52.83;;;;;;;11.50;51.84;99983.44;5051888;28;20501;-77
2022/09/04 03:20:48;;;;;;;87.15;54.65;;;;;;;11.35;52.52;99986.28;5035214;28;20041;-77
2022/09/04 03:23:24;;;;;;;83.75;50.20;;;;;;;11.27;52.77;99996.69;5034937;28;20463;-78
2022/09/04 03:26:09;;;;;;;77.95;48.47;;;;;;;11.36;53.09;99998.72;5034782;28;20492;-76
2022/09/04 03:28:59;;;;;;;79.90;51.60;;;;;;;11.31;52.79;99990.13;5051360;28;20049;-77
2022/09/04 03:31:37;;;;;;;66.50;46.88;;;;;;;11.20;53.18;99984.72;5051355;28;20041;-77
2022/09/04 03:34:17;;;;;;;61.25;38.33;;;;;;;11.21;53.41;99986.44;5051306;28;20041;-78
2022/09/04 03:37:10;;;;;;;39.67;27.45;;;;;;;11.30;53.50;99985.75;5051553;28;20033;-78
2022/09/04 03:40:07;;;;;;;35.10;20.58;;;;;;;11.48;52.94;99970.19;5037746;28;20049;-78
2022/09/04 03:43:17;;;;;;;34.15;13.45;;;;;;;11.40;53.54;99984.13;5058736;28;20046;-78
2022/09/04 03:46:01;;;;;;;28.60;17.02;;;;;;;11.43;53.56;99975.88;5060469;28;20053;-78
2022/09/04 03:48:41;;;;;;;26.48;16.13;;;;;;;11.36;53.77;99971.94;5040083;28;20404;-78
2022/09/04 03:51:27;;;;;;;31.00;20.30;;;;;;;11.53;53.96;99978.72;5050961;28;20076;-77
2022/09/04 03:54:27;;;;;;;30.23;17.75;;;;;;;11.70;53.52;99968.56;5034854;28;20478;-79
2022/09/04 03:56:59;;;;;;;30.10;17.77;;;;;;;11.88;52.70;99976.13;5028124;28;20056;-79
2022/09/04 03:59:49;;;;;;;37.35;19.10;;;;;;;12.03;52.86;99970.56;5050965;28;20063;-78
2022/09/04 04:02:40;;;;;;;40.33;20.67;;;;;;;12.03;52.96;99975.94;5050993;28;20049;-78
2022/09/04 04:05:44;;;;;;;44.90;19.50;;;;;;;12.12;52.58;99980.59;5052321;28;20114;-76
2022/09/04 04:08:13;;;;;;;43.35;18.02;;;;;;;12.28;52.30;99980.28;5018736;28;20068;-76
2022/09/04 04:10:45;;;;;;;37.28;18.55;;;;;;;12.75;51.71;99973.91;5018233;28;20051;-78
2022/09/04 04:13:20;;;;;;;39.10;17.98;;;;;;;13.17;51.21;99971.44;5050909;28;20044;-78
2022/09/04 04:16:21;;;;;;;32.22;17.52;;;;;;;13.59;50.06;99958.19;5051711;28;20048;-78
2022/09/04 04:19:17;;;;;;;30.80;17.70;;;;;;;13.82;49.19;99962.50;5017275;28;20049;-79
2022/09/04 04:22:01;;;;;;;39.22;18.17;;;;;;;14.10;48.72;99968.22;5034719;28;20096;-77
2022/09/04 04:24:37;;;;;;;47.40;18.58;;;;;;;14.11;48.48;99978.03;5019485;28;20492;-78
2022/09/04 04:27:25;;;;;;;33.50;16.77;;;;;;;14.18;48.33;99979.22;5022009;28;20109;-78
2022/09/04 04:29:56;;;;;;;37.00;17.85;;;;;;;14.28;47.93;99972.03;5038596;28;20068;-79
2022/09/04 04:32:36;;;;;;;42.65;20.65;;;;;;;14.61;47.48;99982.78;5054851;28;20041;-79
2022/09/04 04:35:10;;;;;;;43.42;22.15;;;;;;;14.55;47.12;99986.81;5054739;28;20061;-78
2022/09/04 04:37:55;;;;;;;38.40;20.85;;;;;;;14.73;47.00;99993.31;5055697;28;20045;-78
2022/09/04 04:40:20;;;;;;;42.67;20.25;;;;;;;14.66;46.96;99996.66;5021284;28;20040;-77
2022/09/04 04:42:55;;;;;;;48.35;18.92;;;;;;;14.84;46.42;99992.38;5051040;28;20393;-76
2022/09/04 04:48:15;;;;;;;36.30;16.77;;;;;;;15.16;45.64;99989.56;5052097;28;20496;-77
2022/09/04 04:51:19;;;;;;;28.50;16.95;;;;;;;15.23;44.92;99988.03;5017449;28;20041;-78
2022/09/04 04:53:57;;;;;;;30.70;16.35;;;;;;;15.36;44.81;99978.84;5055019;28;20051;-78
2022/09/04 04:56:25;;;;;;;39.58;17.27;;;;;;;15.56;44.62;99980.56;5037723;28;20045;-77
2022/09/04 04:59:19;;;;;;;35.10;16.77;;;;;;;15.79;44.20;99976.66;5021406;28;20152;-78
2022/09/04 05:01:48;;;;;;;27.20;16.25;;;;;;;15.95;43.54;99977.97;5050198;28;20049;-79
2022/09/04 05:04:24;;;;;;;46.25;17.45;;;;;;;16.02;43.58;99957.50;5049647;28;20045;-79
2022/09/04 05:06:55;;;;;;;48.58;19.95;;;;;;;16.33;42.81;99968.13;5021073;28;20049;-80
2022/09/04 05:09:33;;;;;;;41.15;19.42;;;;;;;16.21;43.17;99957.50;5050070;28;20048;-78
2022/09/04 05:12:15;;;;;;;34.15;19.35;;;;;;;16.25;43.15;99948.13;5036362;28;20041;-79
2022/09/04 05:14:44;;;;;;;32.90;18.77;;;;;;;16.41;43.02;99960.16;5035459;28;20073;-79
2022/09/04 05:17:42;;;;;;;35.90;20.80;;;;;;;16.61;43.11;99958.28;5034120;28;20048;-78
2022/09/04 05:20:36;;;;;;;30.42;19.13;;;;;;;17.03;42.43;99958.69;5001731;28;20065;-78
2022/09/04 05:23:22;;;;;;;49.95;18.92;;;;;;;17.42;41.42;99963.94;5034040;28;20042;-77
2022/09/04 05:26:18;;;;;;;33.97;19.17;;;;;;;16.80;40.97;99949.28;5017661;28;20041;-78
2022/09/04 05:28:55;;;;;;;38.97;21.77;;;;;;;16.46;42.21;99952.47;5034088;28;20068;-77
2022/09/04 05:31:52;;;;;;;41.15;22.52;;;;;;;15.87;43.13;99956.22;5017201;28;20041;-77
2022/09/04 05:34:32;;;;;;;42.35;22.65;;;;;;;16.01;43.29;99953.09;5033358;28;20049;-79
2022/09/04 05:37:08;;;;;;;42.90;22.42;;;;;;;16.45;42.98;99950.78;5033808;28;20056;-80
2022/09/04 05:39:41;;;;;;;36.65;21.52;;;;;;;16.93;42.01;99956.06;5034819;28;20603;-78
2022/09/04 05:42:21;;;;;;;33.22;21.17;;;;;;;17.08;41.71;99959.13;5000539;28;20131;-79
2022/09/04 05:45:09;;;;;;;44.58;21.55;;;;;;;16.94;40.75;99956.91;5033508;28;20060;-78
2022/09/04 05:48:09;;;;;;;29.58;17.17;;;;;;;16.80;41.02;99960.94;5016849;28;20034;-79
2022/09/04 05:50:41;;;;;;;29.95;16.48;;;;;;;16.96;41.00;99954.91;5004450;28;20050;-79
2022/09/04 05:53:22;;;;;;;37.03;18.95;;;;;;;17.03;40.72;99956.00;5001730;28;20045;-78
2022/09/04 05:55:58;;;;;;;30.65;13.82;;;;;;;17.20;40.57;99949.81;5016788;28;20046;-78
2022/09/04 05:58:44;;;;;;;37.95;15.15;;;;;;;17.32;40.26;99946.91;5016949;28;20099;-81
2022/09/04 06:01:37;;;;;;;39.88;15.35;;;;;;;17.18;39.62;99943.69;5016950;28;20041;-79
2022/09/04 06:04:22;;;;;;;26.15;14.55;;;;;;;17.20;40.54;99947.13;5033892;28;20068;-78
2022/09/04 06:07:52;;;;;;;32.20;13.25;;;;;;;17.11;39.77;99934.53;5033225;28;20045;-82
2022/09/04 06:10:56;;;;;;;27.63;12.68;;;;;;;16.71;40.60;99935.66;4967553;28;20049;-82
2022/09/04 06:13:32;;;;;;;18.00;9.55;;;;;;;17.03;40.02;99917.34;5018676;28;20041;-84
2022/09/04 06:16:16;;;;;;;13.45;8.98;;;;;;;17.47;39.89;99904.84;5016873;28;20076;-84
2022/09/04 06:18:42;;;;;;;22.15;6.80;;;;;;;17.79;38.21;99893.53;5036254;28;20119;-79
2022/09/04 06:21:40;;;;;;;14.50;5.72;;;;;;;18.07;37.50;99902.38;5032646;28;20488;-80
2022/09/04 06:24:37;;;;;;;10.20;5.47;;;;;;;18.05;35.88;99887.28;5032605;28;20097;-79
2022/09/04 06:27:34;;;;;;;14.95;5.40;;;;;;;18.01;37.10;99885.91;5032389;28;20312;-77
2022/09/04 06:30:08;;;;;;;11.40;5.50;;;;;;;18.37;35.99;99881.28;5032775;28;20048;-77
2022/09/04 06:33:01;;;;;;;20.80;6.20;;;;;;;18.65;35.46;99873.81;5015451;28;20049;-78
2022/09/04 06:35:54;;;;;;;13.27;6.93;;;;;;;19.07;34.97;99881.13;5033682;28;20103;-77
2022/09/04 06:38:44;;;;;;;14.15;6.90;;;;;;;19.16;35.21;99886.41;5033527;28;20049;-78
2022/09/04 06:41:22;;;;;;;12.65;7.25;;;;;;;19.69;34.18;99878.06;5015667;28;20496;-79
2022/09/04 06:44:25;;;;;;;17.13;7.30;;;;;;;19.65;33.48;99872.13;5015874;28;20088;-77
2022/09/04 06:47:07;;;;;;;11.48;7.53;;;;;;;19.61;33.82;99876.16;5015822;28;20064;-86
2022/09/04 06:50:00;;;;;;;13.98;6.53;;;;;;;19.45;34.23;99859.91;5040315;28;20413;-79
2022/09/04 06:52:49;;;;;;;15.75;6.40;;;;;;;19.29;33.58;99866.09;5019249;28;20048;-81
2022/09/04 06:55:31;;;;;;;10.83;6.03;;;;;;;19.38;33.30;99863.25;5051654;28;20037;-78
2022/09/04 06:58:06;;;;;;;10.32;5.60;;;;;;;19.62;32.90;99862.47;5018836;28;20496;-79
2022/09/04 07:00:59;;;;;;;9.00;4.70;;;;;;;19.81;32.22;99853.16;5035009;28;20052;-79
2022/09/04 07:03:34;;;;;;;6.25;4.05;;;;;;;19.71;32.72;99851.63;5035369;28;20055;-79
2022/09/04 07:06:14;;;;;;;6.90;4.03;;;;;;;19.80;32.19;99842.47;5053234;28;20041;-78
2022/09/04 07:09:20;;;;;;;9.93;5.05;;;;;;;19.85;32.09;99843.66;5035022;28;20049;-79
2022/09/04 07:11:56;;;;;;;10.05;5.35;;;;;;;19.82;32.05;99824.16;5051642;28;20055;-79
2022/09/04 07:14:47;;;;;;;11.55;6.20;;;;;;;19.82;32.47;99821.44;5018734;28;20055;-79
2022/09/04 07:17:38;;;;;;;11.93;5.65;;;;;;;19.77;32.31;99811.09;5035128;28;20047;-79
2022/09/04 07:20:40;;;;;;;11.00;5.80;;;;;;;19.29;32.67;99815.44;5051656;28;20064;-80
2022/09/04 07:23:22;;;;;;;10.30;5.47;;;;;;;19.24;32.88;99814.28;5033698;28;20126;-78
2022/09/04 07:26:06;;;;;;;8.70;5.43;;;;;;;19.13;32.74;99797.31;5049137;28;20052;-79
2022/09/04 07:28:53;;;;;;;8.77;5.82;;;;;;;19.01;33.15;99789.69;5051274;28;20044;-78
2022/09/04 07:31:36;;;;;;;11.30;6.28;;;;;;;19.29;33.34;99792.91;5018366;28;20095;-78
2022/09/04 07:34:35;;;;;;;10.70;6.15;;;;;;;19.53;33.29;99773.13;5035076;28;20563;-78
2022/09/04 07:37:11;;;;;;;19.17;6.25;;;;;;;19.65;32.91;99791.63;5022532;28;20126;-79
2022/09/04 07:39:37;;;;;;;15.65;6.20;;;;;;;19.47;32.91;99757.53;5068442;28;20040;-78
2022/09/04 07:42:15;;;;;;;21.42;8.48;;;;;;;19.61;33.03;99768.53;5049082;28;20076;-80
2022/09/04 07:44:41;;;;;;;26.60;7.22;;;;;;;19.54;33.15;99753.13;5037696;28;20053;-78
2022/09/04 07:47:29;;;;;;;15.35;8.13;;;;;;;18.81;34.34;99743.09;5035472;28;20082;-79
2022/09/04 07:50:18;;;;;;;35.13;9.17;;;;;;;18.18;35.39;99737.06;5034599;28;20033;-80
2022/09/04 07:52:44;;;;;;;;;;;;;;;18.59;35.10;99742.66;5052851;28;20373;-78
2022/09/04 07:55:25;;;;;;;19.00;8.43;;;;;;;18.82;34.73;99728.53;5018060;28;19924;-77
2022/09/04 07:57:51;;;;;;;25.75;8.50;;;;;;;19.04;33.96;99735.16;5034311;28;20073;-78
2022/09/04 08:00:21;;;;;;;27.40;10.63;;;;;;;19.15;34.23;99740.25;5036786;28;20088;-78
2022/09/04 08:03:12;;;;;;;28.23;9.10;;;;;;;19.20;33.29;99720.78;5054791;28;20072;-80
2022/09/04 08:05:48;;;;;;;19.05;8.93;;;;;;;18.68;33.68;99708.31;5022072;28;20045;-78
2022/09/04 08:08:39;;;;;;;21.35;8.30;;;;;;;18.53;34.25;99712.66;5055087;28;20045;-78
2022/09/04 08:11:20;;;;;;;30.00;9.57;;;;;;;18.93;33.99;99706.53;5055235;28;20412;-78
2022/09/04 08:13:49;;;;;;;28.83;10.05;;;;;;;19.09;33.63;99709.25;5038085;28;20045;-78
2022/09/04 08:16:46;;;;;;;24.55;9.25;;;;;;;19.33;33.63;99726.50;5021795;28;20084;-77
2022/09/04 08:19:27;;;;;;;20.73;9.00;;;;;;;19.68;32.71;99721.78;5050764;28;20508;-79
2022/09/04 08:21:56;;;;;;;16.52;8.88;;;;;;;19.87;32.92;99721.41;5055188;28;20132;-80
2022/09/04 08:24:40;;;;;;;20.83;9.52;;;;;;;19.82;32.88;99732.78;5039700;28;20064;-79
2022/09/04 08:27:23;;;;;;;29.95;9.80;;;;;;;20.17;32.82;99730.66;5055913;28;20041;-80
2022/09/04 08:30:07;;;;;;;32.45;12.80;;;;;;;20.77;31.87;99721.91;5037968;28;20071;-79
2022/09/04 08:32:42;;;;;;;36.53;14.63;;;;;;;20.52;31.90;99696.75;5038371;28;20176;-79
2022/09/04 08:35:17;;;;;;;32.33;15.43;;;;;;;20.67;31.85;99695.97;5054581;28;20060;-79
2022/09/04 08:37:46;;;;;;;40.13;14.63;;;;;;;21.06;31.40;99677.72;5037926;28;20049;-78
2022/09/04 08:40:11;;;;;;;;;;;;;;;21.09;31.42;99677.31;5054858;28;20492;-78
2022/09/04 08:42:56;;;;;;;36.80;12.48;;;;;;;21.09;31.29;99665.59;5037605;28;19916;-78
2022/09/04 08:45:46;;;;;;;44.10;12.73;;;;;;;21.62;31.02;99662.94;5054218;28;20044;-78
2022/09/04 08:48:17;;;;;;;33.90;12.27;;;;;;;22.04;30.56;99660.41;5054489;28;20047;-79
2022/09/04 08:51:32;;;;;;;27.58;11.65;;;;;;;21.92;29.79;99667.34;5037684;28;20424;-80
2022/09/04 08:54:17;;;;;;;26.95;12.27;;;;;;;21.13;30.60;99657.94;5023837;28;20045;-78
2022/09/04 08:57:24;;;;;;;29.48;10.38;;;;;;;20.75;31.19;99661.44;5054201;28;20053;-78
2022/09/04 09:00:14;;;;;;;26.20;11.40;;;;;;;20.97;30.88;99650.78;5015569;28;20056;-79
2022/09/04 09:03:17;;;;;;;19.20;10.82;;;;;;;20.91;30.75;99636.06;5020596;28;20136;-80
2022/09/04 09:05:54;;;;;;;22.50;10.45;;;;;;;20.68;30.74;99625.16;5055704;28;20045;-77
2022/09/04 09:08:28;;;;;;;19.63;9.98;;;;;;;20.79;30.59;99615.75;5037370;28;20041;-78
2022/09/04 09:11:19;;;;;;;26.10;10.43;;;;;;;20.59;30.54;99618.13;5036887;28;20071;-78
2022/09/04 09:14:33;;;;;;;17.75;8.85;;;;;;;20.15;31.06;99624.09;5053996;28;20106;-77
2022/09/04 09:17:15;;;;;;;20.92;9.30;;;;;;;20.30;30.69;99626.91;5037388;28;20382;-77
2022/09/04 09:20:02;;;;;;;24.75;10.75;;;;;;;20.79;30.58;99626.63;5054846;28;20052;-79
2022/09/04 09:23:01;;;;;;;14.75;9.45;;;;;;;20.62;29.56;99631.34;5053690;28;20064;-79
2022/09/04 09:25:47;;;;;;;22.77;8.85;;;;;;;20.45;29.42;99627.84;5054420;28;20163;-77
2022/09/04 09:28:16;;;;;;;16.98;9.02;;;;;;;20.16;29.98;99614.97;5020741;28;20159;-78
2022/09/04 09:30:57;;;;;;;18.92;8.63;;;;;;;20.42;29.68;99624.63;5036970;28;20161;-81
2022/09/04 09:33:37;;;;;;;12.68;7.55;;;;;;;20.79;29.44;99615.75;5053264;28;20048;-77
2022/09/04 09:36:14;;;;;;;13.48;6.78;;;;;;;21.17;28.76;99597.56;5053773;28;20084;-80
2022/09/04 09:39:19;;;;;;;12.80;6.55;;;;;;;21.56;28.56;99612.84;5037179;28;20094;-78
2022/09/04 09:42:06;;;;;;;6.72;4.88;;;;;;;21.89;28.02;99591.53;5052018;28;20508;-80
2022/09/04 09:45:22;;;;;;;10.02;4.28;;;;;;;21.86;27.87;99612.84;5037394;28;20057;-81
2022/09/04 09:47:56;;;;;;;7.00;3.60;;;;;;;22.09;27.81;99604.56;5052870;28;20543;-79
2022/09/04 09:50:59;;;;;;;7.43;3.60;;;;;;;22.43;27.21;99610.22;5053182;28;20076;-80
2022/09/04 09:53:47;;;;;;;6.43;4.05;;;;;;;22.52;27.11;99609.03;5054107;28;20040;-83
2022/09/04 09:56:49;;;;;;;10.70;4.50;;;;;;;22.67;26.78;99597.25;5055755;28;20044;-79
2022/09/04 09:59:24;;;;;;;11.35;3.80;;;;;;;22.90;27.21;99608.78;5020193;28;20510;-78
2022/09/04 10:02:15;;;;;;;6.25;3.30;;;;;;;23.10;26.45;99602.72;5053945;28;20057;-80
2022/09/04 10:05:11;;;;;;;5.35;3.35;;;;;;;22.64;26.68;99603.09;5036002;28;20585;-83
2022/09/04 10:07:43;;;;;;;7.13;3.30;;;;;;;22.79;26.54;99606.59;5053991;28;20037;-78
2022/09/04 10:10:46;;;;;;;7.95;3.58;;;;;;;22.32;27.01;99612.59;5054413;28;20067;-78
2022/09/04 10:13:40;;;;;;;8.07;3.45;;;;;;;22.29;26.75;99597.47;5019402;28;20069;-77
2022/09/04 10:16:15;;;;;;;9.25;2.90;;;;;;;22.15;27.14;99601.09;5036148;28;20044;-86
2022/09/04 10:19:10;;;;;;;7.85;2.80;;;;;;;22.44;27.00;99584.66;5019417;28;20094;-80
2022/09/04 10:21:58;;;;;;;10.93;2.70;;;;;;;23.19;26.53;99598.78;5051708;28;20047;-82
2022/09/04 10:24:34;;;;;;;6.10;2.65;;;;;;;23.51;25.80;99586.44;5052841;28;20554;-86
2022/09/04 10:27:21;;;;;;;5.10;2.75;;;;;;;23.81;25.38;99587.06;5037474;28;20139;-77
2022/09/04 10:30:07;;;;;;;5.93;2.78;;;;;;;23.75;25.31;99587.84;5053429;28;20053;-79
2022/09/04 10:33:04;;;;;;;8.50;3.10;;;;;;;23.63;25.50;99589.44;5036033;28;20059;-84
2022/09/04 10:35:53;;;;;;;7.53;2.85;;;;;;;23.32;25.82;99588.00;5019186;28;20049;-78
2022/09/04 10:38:24;;;;;;;5.65;3.13;;;;;;;23.54;25.42;99579.72;5052147;28;20055;-83
2022/09/04 10:41:22;;;;;;;5.97;3.05;;;;;;;23.69;25.01;99572.25;5028511;28;20048;-78
2022/09/04 10:44:15;;;;;;;5.97;2.70;;;;;;;23.37;25.11;99574.59;5036268;28;20055;-77
2022/09/04 10:47:00;;;;;;;9.00;2.47;;;;;;;23.46;24.72;99569.81;5035264;28;20047;-77
2022/09/04 10:49:58;;;;;;;8.50;3.15;;;;;;;23.24;24.79;99569.03;5033661;28;20069;-81
2022/09/04 10:52:59;;;;;;;5.63;2.50;;;;;;;23.45;25.09;99584.50;5032146;28;20049;-76
2022/09/04 10:55:49;;;;;;;9.88;4.10;;;;;;;22.71;25.79;99574.84;5031728;28;20759;-78
2022/09/04 10:58:38;;;;;;;7.45;3.33;;;;;;;21.99;26.64;99578.47;5035342;28;20052;-78
2022/09/04 11:01:41;;;;;;;6.60;3.20;;;;;;;21.72;27.02;99579.16;5051929;28;20710;-84
2022/09/04 11:04:29;;;;;;;6.05;2.55;;;;;;;21.42;27.45;99590.03;5019334;28;20052;-77
2022/09/04 11:07:01;;;;;;;5.45;2.80;;;;;;;21.24;27.24;99594.97;5052602;28;20048;-77
2022/09/04 11:09:53;;;;;;;4.90;2.53;;;;;;;21.21;27.70;99582.59;5034844;28;20051;-78
2022/09/04 11:12:48;;;;;;;3.47;2.65;;;;;;;21.13;27.12;99560.06;5043186;28;20092;-77
2022/09/04 11:15:32;;;;;;;9.20;3.00;;;;;;;20.95;27.36;99574.88;5051744;28;20044;-78
2022/09/04 11:18:12;;;;;;;3.58;2.63;;;;;;;20.81;27.91;99578.38;5052915;28;20076;-81
2022/09/04 11:21:22;;;;;;;6.32;2.90;;;;;;;20.56;28.28;99570.44;5051589;28;20091;-78
2022/09/04 11:24:03;;;;;;;5.55;2.85;;;;;;;20.49;28.44;99603.88;5051245;28;20089;-77
2022/09/04 11:27:08;;;;;;;12.15;2.92;;;;;;;20.37;29.07;99612.44;5034498;28;20052;-79
2022/09/04 11:29:46;;;;;;;6.43;2.90;;;;;;;20.04;29.24;99616.38;5031248;28;20140;-78
2022/09/04 11:32:40;;;;;;;6.13;2.88;;;;;;;19.70;29.51;99603.13;5031243;28;20523;-77
2022/09/04 11:35:37;;;;;;;4.53;2.70;;;;;;;19.69;29.95;99632.09;5015021;28;20052;-78
2022/09/04 11:38:16;;;;;;;4.28;2.78;;;;;;;19.22;30.75;99632.00;5014899;28;20041;-77
2022/09/04 11:40:57;;;;;;;6.63;2.47;;;;;;;18.92;31.05;99631.69;5031440;28;20042;-77
2022/09/04 11:43:48;;;;;;;6.32;2.88;;;;;;;18.84;31.09;99631.69;5031052;28;20041;-76
2022/09/04 11:46:36;;;;;;;10.68;3.22;;;;;;;18.68;31.51;99622.50;5031831;28;20120;-76
2022/09/04 11:49:21;;;;;;;6.57;2.58;;;;;;;18.58;32.06;99624.53;5031066;28;20457;-78
2022/09/04 11:52:33;;;;;;;4.50;3.00;;;;;;;18.46;32.13;99625.84;5031593;28;20045;-76
2022/09/04 11:55:04;;;;;;;5.88;3.40;;;;;;;18.25;32.55;99626.34;5014711;28;20457;-76
2022/09/04 11:58:08;;;;;;;9.85;3.30;;;;;;;18.47;32.49;99616.75;5013991;28;20049;-79
2022/09/04 12:00:43;;;;;;;7.15;3.05;;;;;;;18.57;32.24;99617.41;5030267;28;20053;-78
2022/09/04 12:03:48;;;;;;;5.68;3.08;;;;;;;18.65;32.09;99632.81;5014092;28;20049;-76
2022/09/04 12:06:33;;;;;;;9.30;3.10;;;;;;;18.57;32.46;99628.25;4999327;28;20053;-78
2022/09/04 12:09:09;;;;;;;10.38;3.10;;;;;;;18.65;32.40;99630.97;5030812;28;20054;-76
2022/09/04 12:12:09;;;;;;;10.52;3.08;;;;;;;18.72;32.47;99622.19;5013825;28;20053;-78
2022/09/04 12:14:46;;;;;;;7.00;3.35;;;;;;;18.91;32.51;99630.00;5030407;28;20128;-76
2022/09/04 12:18:02;;;;;;;6.22;3.25;;;;;;;18.78;32.99;99635.06;5030438;28;20045;-77
2022/09/04 12:20:44;;;;;;;5.05;2.80;;;;;;;18.71;32.99;99623.22;5032692;28;20056;-75
2022/09/04 12:23:19;;;;;;;4.60;2.40;;;;;;;18.48;33.68;99606.75;5014256;28;20408;-76
2022/09/04 12:26:04;;;;;;;7.75;3.30;;;;;;;18.60;33.20;99613.53;5030218;28;20096;-77
2022/09/04 12:29:07;;;;;;;12.75;2.47;;;;;;;18.51;33.77;99607.28;5030486;28;20390;-77
2022/09/04 12:31:50;;;;;;;8.25;3.20;;;;;;;18.45;34.27;99602.50;4997094;28;20068;-76
2022/09/04 12:34:41;;;;;;;8.40;3.22;;;;;;;18.38;34.36;99591.50;5013992;28;20049;-76
2022/09/04 12:37:45;;;;;;;8.50;3.17;;;;;;;18.29;34.78;99592.50;4997273;28;20049;-76
2022/09/04 12:40:38;;;;;;;7.03;3.33;;;;;;;18.08;35.42;99587.53;5031454;28;20559;-78
2022/09/04 12:43:22;;;;;;;6.30;3.00;;;;;;;18.09;35.45;99589.25;4997736;28;20060;-77
2022/09/04 12:46:02;;;;;;;8.88;3.10;;;;;;;18.05;35.66;99568.09;5032278;28;20046;-75
2022/09/04 12:48:32;;;;;;;13.25;2.83;;;;;;;17.59;36.69;99533.28;5017777;28;20041;-79
2022/09/04 12:51:11;;;;;;;6.40;2.75;;;;;;;17.45;36.64;99490.66;5017125;28;20132;-77
2022/09/04 12:54:02;;;;;;;3.97;2.70;;;;;;;17.41;37.20;99483.88;5033155;28;20456;-77